Time;durP1;ratioP1;P1;durP2;ratioP2;P2;SDS_P1;SDS_P2;PMS_P1;PMS_P2;Temp;Humidity;BMP_temperature;BMP_pressure;BME280_temperature;BME280_humidity;BME280_pressure;Samples;Min_cycle;Max_cycle;Signal;HPM_P1;HPM_P2
2024/04/17 00:01:11;;;;;;;30.90;13.60;;;7.50;99.90;;;;;;791261;180;26602;-77
2024/04/17 00:03:38;;;;;;;33.37;12.47;;;7.50;99.90;;;;;;790000;180;26480;-77
2024/04/17 00:06:05;;;;;;;27.07;12.87;;;7.50;99.90;;;;;;788444;180;26468;-77
2024/04/17 00:08:31;;;;;;;39.77;12.00;;;7.50;99.90;;;;;;791617;178;26415;-78
2024/04/17 00:10:58;;;;;;;31.77;11.00;;;7.50;99.90;;;;;;795228;179;26451;-78
2024/04/17 00:13:25;;;;;;;32.87;10.73;;;7.50;99.90;;;;;;796071;180;26439;-77
2024/04/17 00:15:51;;;;;;;32.47;10.77;;;7.40;99.90;;;;;;794439;180;26415;-77
2024/04/17 00:18:18;;;;;;;27.87;11.33;;;7.40;99.90;;;;;;797832;180;26428;-79
2024/04/17 00:20:44;;;;;;;38.33;11.47;;;7.40;99.90;;;;;;791678;180;26448;-78
2024/04/17 00:23:12;;;;;;;32.17;11.07;;;7.30;99.90;;;;;;794120;181;26433;-78
2024/04/17 00:25:38;;;;;;;33.20;12.90;;;7.30;99.90;;;;;;792846;179;26432;-77
2024/04/17 00:28:05;;;;;;;31.57;10.80;;;7.30;99.90;;;;;;794703;179;26418;-78
2024/04/17 00:30:32;;;;;;;31.83;11.57;;;7.20;99.90;;;;;;792144;179;26987;-78
2024/04/17 00:32:59;;;;;;;37.60;11.77;;;7.20;99.90;;;;;;790727;180;26430;-78
2024/04/17 00:35:25;;;;;;;35.27;11.27;;;7.20;99.90;;;;;;792449;180;26516;-77
2024/04/17 00:37:52;;;;;;;45.23;14.10;;;7.10;99.90;;;;;;794500;179;26437;-77
2024/04/17 00:40:18;;;;;;;36.83;12.30;;;7.10;99.90;;;;;;791044;180;26970;-78
2024/04/17 00:42:45;;;;;;;34.73;11.90;;;7.00;99.90;;;;;;791483;179;26468;-78
2024/04/17 00:45:12;;;;;;;29.57;11.80;;;7.00;99.90;;;;;;793592;179;26460;-78
2024/04/17 00:47:38;;;;;;;42.83;13.67;;;6.90;99.90;;;;;;792060;181;26420;-78
2024/04/17 00:50:05;;;;;;;37.60;12.10;;;6.80;99.90;;;;;;789600;180;26472;-77
2024/04/17 00:52:32;;;;;;;36.37;11.70;;;6.80;99.90;;;;;;789819;180;26452;-78
2024/04/17 00:55:00;;;;;;;29.80;10.63;;;6.70;99.90;;;;;;790270;180;26419;-78
2024/04/17 00:57:25;;;;;;;43.93;11.10;;;6.70;99.90;;;;;;791342;180;26794;-78
2024/04/17 00:59:52;;;;;;;38.83;10.53;;;6.60;99.90;;;;;;792306;181;26458;-78
2024/04/17 01:02:18;;;;;;;35.30;10.40;;;6.50;99.90;;;;;;789902;180;26449;-78
2024/04/17 01:04:45;;;;;;;40.50;10.30;;;6.50;99.90;;;;;;793163;180;26457;-78
2024/04/17 01:07:11;;;;;;;37.87;10.70;;;6.40;99.90;;;;;;792953;180;26446;-78
2024/04/17 01:09:38;;;;;;;30.10;8.20;;;6.40;99.90;;;;;;789572;180;26420;-78
2024/04/17 01:12:12;;;;;;;29.30;8.30;;;6.30;99.90;;;;;;794335;172;26443;-83
2024/04/17 01:14:39;;;;;;;40.53;8.43;;;6.30;99.90;;;;;;803907;177;26907;-80
2024/04/17 01:17:05;;;;;;;38.37;8.80;;;6.30;99.90;;;;;;806704;177;26420;-79
2024/04/17 01:19:32;;;;;;;31.17;7.83;;;6.20;99.90;;;;;;790323;181;26441;-79
2024/04/17 01:21:59;;;;;;;30.63;8.37;;;6.20;99.90;;;;;;787744;180;26432;-80
2024/04/17 01:24:25;;;;;;;34.93;9.93;;;6.10;99.90;;;;;;780394;183;26441;-79
2024/04/17 01:26:52;;;;;;;27.07;8.73;;;6.10;99.90;;;;;;782796;183;26448;-79
2024/04/17 01:29:19;;;;;;;36.63;8.83;;;6.00;99.90;;;;;;784705;183;26477;-80
2024/04/17 01:31:45;;;;;;;24.30;7.23;;;6.10;99.90;;;;;;783592;182;26453;-80
2024/04/17 01:34:12;;;;;;;30.47;8.13;;;6.00;99.90;;;;;;810442;175;26450;-80
2024/04/17 01:36:38;;;;;;;28.97;9.77;;;6.00;99.90;;;;;;809658;177;26421;-79
2024/04/17 01:39:05;;;;;;;36.40;8.93;;;6.00;99.90;;;;;;811015;177;26398;-79
2024/04/17 01:41:32;;;;;;;23.77;8.10;;;6.00;99.90;;;;;;808422;177;26414;-79
2024/04/17 01:43:58;;;;;;;37.63;9.73;;;5.80;99.90;;;;;;809789;177;27000;-78
2024/04/17 01:46:25;;;;;;;37.30;10.10;;;5.80;99.90;;;;;;810256;177;26481;-79
2024/04/17 01:48:51;;;;;;;39.43;8.63;;;5.80;99.90;;;;;;808852;177;26398;-79
2024/04/17 01:51:18;;;;;;;32.50;9.33;;;5.80;99.90;;;;;;808737;177;26419;-79
2024/04/17 01:53:45;;;;;;;35.30;8.37;;;5.70;99.90;;;;;;808540;177;26839;-80
2024/04/17 01:56:11;;;;;;;41.83;9.37;;;5.60;99.90;;;;;;809836;177;26406;-79
2024/04/17 01:58:38;;;;;;;37.50;7.57;;;5.60;99.90;;;;;;809946;177;26466;-80
2024/04/17 02:01:04;;;;;;;43.03;9.33;;;5.60;99.90;;;;;;809853;177;26451;-79
2024/04/17 02:03:31;;;;;;;35.40;8.63;;;5.60;99.90;;;;;;809421;175;26420;-79
2024/04/17 02:05:58;;;;;;;31.07;8.30;;;5.50;99.90;;;;;;808337;177;26423;-79
2024/04/17 02:08:26;;;;;;;28.90;8.73;;;5.50;99.90;;;;;;807713;177;26987;-79
2024/04/17 02:10:52;;;;;;;29.13;8.43;;;5.50;99.90;;;;;;808549;177;26408;-80
2024/04/17 02:13:19;;;;;;;36.40;9.03;;;5.40;99.90;;;;;;809838;176;26421;-80
2024/04/17 02:15:46;;;;;;;32.57;8.97;;;5.40;99.90;;;;;;809715;177;26447;-79
2024/04/17 02:18:12;;;;;;;44.83;9.10;;;5.40;99.90;;;;;;810544;177;26423;-80
2024/04/17 02:20:39;;;;;;;33.10;9.10;;;5.40;99.90;;;;;;808369;177;26427;-79
2024/04/17 02:23:05;;;;;;;34.57;9.13;;;5.40;99.90;;;;;;808689;177;26470;-79
2024/04/17 02:25:32;;;;;;;26.50;8.07;;;5.40;99.90;;;;;;808885;177;26482;-80
2024/04/17 02:27:59;;;;;;;30.23;9.47;;;5.40;99.90;;;;;;808771;177;26406;-80
2024/04/17 02:30:25;;;;;;;28.00;8.40;;;5.30;99.90;;;;;;809197;178;26411;-79
2024/04/17 02:32:52;;;;;;;31.43;8.27;;;5.30;99.90;;;;;;809918;175;26425;-79
2024/04/17 02:35:18;;;;;;;39.73;9.20;;;5.30;99.90;;;;;;812771;175;26415;-80
2024/04/17 02:37:45;;;;;;;31.20;9.20;;;5.30;99.90;;;;;;810951;177;26402;-78
2024/04/17 02:40:12;;;;;;;29.03;8.33;;;5.30;99.90;;;;;;809911;176;26436;-78
2024/04/17 02:42:39;;;;;;;31.33;9.03;;;5.20;99.90;;;;;;809447;176;26434;-79
2024/04/17 02:45:06;;;;;;;34.83;9.67;;;5.10;99.90;;;;;;809374;177;26955;-79
2024/04/17 02:47:32;;;;;;;43.60;10.30;;;5.10;99.90;;;;;;810516;177;26425;-79
2024/04/17 02:49:59;;;;;;;26.70;8.87;;;5.10;99.90;;;;;;810170;177;26421;-79
2024/04/17 02:52:25;;;;;;;32.63;8.77;;;5.10;99.90;;;;;;810170;175;26443;-79
2024/04/17 02:54:52;;;;;;;37.03;9.93;;;5.10;99.90;;;;;;808755;177;26925;-79
2024/04/17 02:57:19;;;;;;;30.33;8.53;;;5.00;99.90;;;;;;808476;177;26402;-79
2024/04/17 02:59:46;;;;;;;33.83;8.47;;;5.10;99.90;;;;;;809792;177;26414;-78
2024/04/17 03:02:13;;;;;;;26.77;8.33;;;5.00;99.90;;;;;;810495;177;26413;-79
2024/04/17 03:04:39;;;;;;;40.40;9.73;;;5.00;99.90;;;;;;810943;177;26417;-78
2024/04/17 03:07:06;;;;;;;33.83;9.00;;;4.80;99.90;;;;;;808200;177;26398;-77
2024/04/17 03:09:32;;;;;;;34.57;9.73;;;4.80;99.90;;;;;;808052;177;26434;-78
2024/04/17 03:11:59;;;;;;;39.80;11.37;;;4.80;99.90;;;;;;807804;177;26421;-77
2024/04/17 03:14:26;;;;;;;35.60;9.93;;;4.80;99.90;;;;;;808516;177;26435;-77
2024/04/17 03:16:53;;;;;;;38.90;9.90;;;4.80;99.90;;;;;;808224;177;26415;-78
2024/04/17 03:19:19;;;;;;;37.60;11.27;;;4.70;99.90;;;;;;809541;177;26409;-79
2024/04/17 03:21:46;;;;;;;37.63;10.43;;;4.80;99.90;;;;;;808987;177;26423;-79
2024/04/17 03:24:13;;;;;;;40.00;10.13;;;4.80;99.90;;;;;;808340;177;26421;-78
2024/04/17 03:26:39;;;;;;;40.60;11.33;;;4.80;99.90;;;;;;808279;176;26413;-81
2024/04/17 03:29:06;;;;;;;40.07;9.60;;;4.80;99.90;;;;;;809041;176;26420;-80
2024/04/17 03:31:32;;;;;;;35.80;12.07;;;4.70;99.90;;;;;;810497;178;26422;-80
2024/04/17 03:34:00;;;;;;;44.13;11.23;;;4.70;99.90;;;;;;810130;176;26405;-82
2024/04/17 03:36:27;;;;;;;43.00;12.30;;;4.70;99.90;;;;;;810433;177;26410;-80
2024/04/17 03:38:54;;;;;;;34.73;11.67;;;4.70;99.90;;;;;;810039;177;26979;-80
2024/04/17 03:41:20;;;;;;;46.77;11.73;;;4.80;99.90;;;;;;809769;177;27005;-79
2024/04/17 03:43:47;;;;;;;37.57;11.40;;;4.70;99.90;;;;;;810767;177;26420;-80
2024/04/17 03:46:13;;;;;;;42.53;11.23;;;4.70;99.90;;;;;;809678;175;26725;-79
2024/04/17 03:48:40;;;;;;;41.53;12.40;;;4.70;99.90;;;;;;812427;176;28086;-80
2024/04/17 03:51:07;;;;;;;37.87;12.30;;;4.80;99.90;;;;;;811198;177;26413;-77
2024/04/17 03:53:33;;;;;;;42.57;11.83;;;4.70;99.90;;;;;;811315;177;26448;-78
2024/04/17 03:56:00;;;;;;;37.50;13.33;;;4.60;99.90;;;;;;809221;177;26426;-78
2024/04/17 03:58:27;;;;;;;40.70;11.57;;;4.70;99.90;;;;;;811714;177;26425;-79
2024/04/17 04:00:53;;;;;;;35.67;11.70;;;4.60;99.90;;;;;;809349;177;26424;-79
2024/04/17 04:03:20;;;;;;;46.43;13.37;;;4.60;99.90;;;;;;809995;177;26441;-79
2024/04/17 04:05:46;;;;;;;43.07;13.27;;;4.60;99.90;;;;;;808379;177;26431;-79
2024/04/17 04:08:13;;;;;;;45.97;13.03;;;4.50;99.90;;;;;;809695;177;26412;-79
2024/04/17 04:10:39;;;;;;;33.13;11.57;;;4.50;99.90;;;;;;808293;177;26414;-78
2024/04/17 04:13:06;;;;;;;39.27;13.63;;;4.60;99.90;;;;;;810354;177;26430;-79
2024/04/17 04:15:33;;;;;;;44.37;13.33;;;4.60;99.90;;;;;;808357;177;26405;-79
2024/04/17 04:17:59;;;;;;;56.40;14.90;;;4.60;99.90;;;;;;808722;177;26405;-79
2024/04/17 04:20:26;;;;;;;41.47;14.40;;;4.60;99.90;;;;;;808147;177;26465;-80
2024/04/17 04:22:52;;;;;;;42.87;14.17;;;4.50;99.90;;;;;;809580;177;26468;-79
2024/04/17 04:25:19;;;;;;;49.37;14.73;;;4.50;99.90;;;;;;807921;177;26401;-79
2024/04/17 04:27:46;;;;;;;47.73;15.50;;;4.50;99.90;;;;;;808800;177;26401;-79
2024/04/17 04:30:12;;;;;;;54.30;14.77;;;4.50;99.90;;;;;;808911;176;26418;-79
2024/04/17 04:32:39;;;;;;;53.40;18.50;;;4.50;99.90;;;;;;808875;177;26430;-79
2024/04/17 04:35:06;;;;;;;51.70;16.47;;;4.60;99.90;;;;;;809431;177;26429;-79
2024/04/17 04:37:32;;;;;;;46.57;17.13;;;4.50;99.90;;;;;;808271;177;26435;-79
2024/04/17 04:40:00;;;;;;;47.43;16.07;;;4.50;99.90;;;;;;807825;177;26434;-79
2024/04/17 04:42:25;;;;;;;41.87;15.07;;;4.50;99.90;;;;;;809613;177;26421;-79
2024/04/17 04:44:52;;;;;;;51.17;16.63;;;4.50;99.90;;;;;;809548;177;26981;-80
2024/04/17 04:47:19;;;;;;;34.33;16.27;;;4.60;99.90;;;;;;810136;177;26404;-79
2024/04/17 04:49:45;;;;;;;44.07;15.73;;;4.60;99.90;;;;;;809081;177;26586;-79
2024/04/17 04:52:12;;;;;;;47.17;16.00;;;4.50;99.90;;;;;;806907;177;26425;-79
2024/04/17 04:54:38;;;;;;;50.00;16.23;;;4.50;99.90;;;;;;808165;177;26419;-79
2024/04/17 04:57:05;;;;;;;48.67;15.83;;;4.50;99.90;;;;;;808749;175;26426;-80
2024/04/17 04:59:32;;;;;;;61.10;17.93;;;4.60;99.90;;;;;;812469;176;26418;-79
2024/04/17 05:01:58;;;;;;;55.17;16.03;;;4.60;99.90;;;;;;811895;175;26413;-79
2024/04/17 05:04:25;;;;;;;43.50;14.37;;;4.70;99.90;;;;;;809062;177;26434;-79
2024/04/17 05:06:51;;;;;;;50.57;14.43;;;4.70;99.90;;;;;;808906;177;26410;-79
2024/04/17 05:09:18;;;;;;;40.03;14.47;;;4.70;99.90;;;;;;807325;177;26548;-79
2024/04/17 05:11:45;;;;;;;42.53;15.23;;;4.80;99.90;;;;;;809480;177;26410;-80
2024/04/17 05:14:11;;;;;;;47.47;13.80;;;4.80;99.90;;;;;;810067;177;26442;-79
2024/04/17 05:16:38;;;;;;;43.27;12.47;;;4.80;99.90;;;;;;809309;177;26410;-79
2024/04/17 05:19:04;;;;;;;45.57;13.30;;;4.80;99.90;;;;;;809263;177;26965;-79
2024/04/17 05:21:31;;;;;;;30.33;13.17;;;4.90;99.90;;;;;;810254;177;26421;-79
2024/04/17 05:23:58;;;;;;;36.47;12.37;;;4.90;99.90;;;;;;809235;177;27059;-79
2024/04/17 05:26:24;;;;;;;26.93;11.43;;;4.90;99.90;;;;;;808568;177;26470;-79
2024/04/17 05:28:51;;;;;;;30.33;11.50;;;4.90;99.90;;;;;;809543;177;26402;-79
2024/04/17 05:31:18;;;;;;;35.67;11.60;;;5.00;99.90;;;;;;810717;177;26402;-80
2024/04/17 05:33:45;;;;;;;38.60;12.50;;;5.00;99.90;;;;;;809409;176;26444;-77
2024/04/17 05:36:11;;;;;;;37.20;13.73;;;5.00;99.90;;;;;;809434;177;26433;-79
2024/04/17 05:38:38;;;;;;;43.40;14.10;;;5.10;99.90;;;;;;810085;177;26410;-80
2024/04/17 05:41:05;;;;;;;33.53;14.67;;;5.20;99.90;;;;;;807168;177;26678;-79
2024/04/17 05:43:31;;;;;;;46.23;17.63;;;5.10;99.90;;;;;;809700;177;26426;-78
2024/04/17 05:45:58;;;;;;;35.93;16.77;;;5.20;99.90;;;;;;808549;177;26451;-79
2024/04/17 05:48:24;;;;;;;50.90;21.43;;;5.10;99.90;;;;;;807255;177;26430;-78
2024/04/17 05:50:51;;;;;;;53.50;21.63;;;5.10;99.90;;;;;;808330;177;26595;-79
2024/04/17 05:53:18;;;;;;;55.30;23.23;;;5.10;99.90;;;;;;807468;175;26435;-80
2024/04/17 05:55:44;;;;;;;62.67;25.57;;;5.20;99.90;;;;;;809606;177;28020;-79
2024/04/17 05:58:11;;;;;;;65.23;29.57;;;5.10;99.90;;;;;;808005;177;26417;-77
2024/04/17 06:00:37;;;;;;;58.17;27.13;;;5.40;99.90;;;;;;807883;177;26421;-77
2024/04/17 06:03:04;;;;;;;59.80;29.23;;;5.50;99.90;;;;;;809187;176;26430;-76
2024/04/17 06:05:31;;;;;;;75.73;29.27;;;5.60;99.90;;;;;;807969;177;26410;-77
2024/04/17 06:07:57;;;;;;;62.53;26.73;;;5.70;99.90;;;;;;808940;177;26565;-80
2024/04/17 06:10:24;;;;;;;53.07;25.23;;;5.50;99.90;;;;;;812358;175;26421;-78
2024/04/17 06:12:51;;;;;;;58.50;28.37;;;5.50;99.90;;;;;;810746;177;26425;-79
2024/04/17 06:15:17;;;;;;;52.77;25.57;;;5.50;99.90;;;;;;809192;177;26435;-79
2024/04/17 06:17:44;;;;;;;53.00;26.83;;;5.60;99.90;;;;;;811392;177;26390;-78
2024/04/17 06:20:10;;;;;;;50.90;23.27;;;5.70;99.90;;;;;;810186;177;26445;-78
2024/04/17 06:22:37;;;;;;;41.60;22.60;;;5.60;99.90;;;;;;809439;177;27062;-78
2024/04/17 06:25:04;;;;;;;52.23;25.43;;;5.60;99.90;;;;;;810487;177;26405;-78
2024/04/17 06:27:30;;;;;;;45.30;22.60;;;5.70;99.90;;;;;;811275;177;26411;-78
2024/04/17 06:29:58;;;;;;;49.40;22.77;;;5.70;99.90;;;;;;811257;177;26413;-78
2024/04/17 06:32:24;;;;;;;52.37;23.80;;;5.90;99.90;;;;;;806656;177;26446;-78
2024/04/17 06:34:51;;;;;;;47.67;22.77;;;5.90;99.90;;;;;;809615;177;26965;-79
2024/04/17 06:37:18;;;;;;;43.50;21.90;;;6.10;99.90;;;;;;795418;177;26513;-80
2024/04/17 06:39:44;;;;;;;39.30;24.03;;;6.20;99.90;;;;;;807916;177;26399;-79
2024/04/17 06:42:11;;;;;;;47.17;22.20;;;6.20;99.90;;;;;;808731;177;26474;-79
2024/04/17 06:44:38;;;;;;;39.40;21.50;;;6.30;99.90;;;;;;808941;177;26401;-76
2024/04/17 06:47:06;;;;;;;46.67;23.03;;;6.30;99.90;;;;;;808647;177;26420;-79
2024/04/17 06:49:31;;;;;;;44.07;20.80;;;6.20;99.90;;;;;;810323;174;26983;-80
2024/04/17 06:51:58;;;;;;;47.57;24.27;;;6.30;99.90;;;;;;810711;177;26411;-80
2024/04/17 06:54:24;;;;;;;39.47;20.50;;;6.40;99.90;;;;;;811638;176;26397;-78
2024/04/17 06:56:51;;;;;;;48.80;18.37;;;6.50;99.90;;;;;;811870;176;26418;-78
2024/04/17 06:59:18;;;;;;;33.40;17.07;;;6.60;99.90;;;;;;808996;177;26432;-77
2024/04/17 07:01:44;;;;;;;33.30;18.97;;;6.60;99.90;;;;;;810330;177;26401;-77
2024/04/17 07:04:11;;;;;;;30.77;16.27;;;6.50;99.90;;;;;;809053;175;26422;-79
2024/04/17 07:06:37;;;;;;;33.23;17.40;;;6.60;99.90;;;;;;805807;177;26442;-78
2024/04/17 07:09:04;;;;;;;37.13;15.33;;;6.70;99.90;;;;;;808183;177;26401;-78
2024/04/17 07:11:31;;;;;;;37.00;14.73;;;6.70;99.90;;;;;;808955;177;26436;-77
2024/04/17 07:13:58;;;;;;;34.70;15.90;;;6.70;99.90;;;;;;808217;175;26418;-78
2024/04/17 07:16:24;;;;;;;28.80;15.07;;;6.70;99.90;;;;;;806211;177;27002;-76
2024/04/17 07:18:51;;;;;;;31.40;14.93;;;6.70;99.90;;;;;;806516;177;26427;-78
2024/04/17 07:21:17;;;;;;;27.47;15.33;;;6.70;99.90;;;;;;809655;175;26417;-78
2024/04/17 07:23:44;;;;;;;25.53;13.00;;;6.60;99.90;;;;;;799943;172;27688;-79
2024/04/17 07:26:11;;;;;;;32.27;14.43;;;6.50;99.90;;;;;;790854;180;26472;-80
2024/04/17 07:28:37;;;;;;;22.03;11.73;;;6.40;99.90;;;;;;795604;175;26615;-80
2024/04/17 07:31:04;;;;;;;23.97;13.60;;;6.40;99.90;;;;;;803352;177;26425;-80
2024/04/17 07:33:31;;;;;;;26.47;13.63;;;6.40;99.90;;;;;;807407;177;26629;-76
2024/04/17 07:35:58;;;;;;;29.67;14.40;;;6.50;99.90;;;;;;806664;177;26432;-80
2024/04/17 07:38:24;;;;;;;30.60;16.07;;;6.50;99.90;;;;;;806157;176;26458;-78
2024/04/17 07:40:57;;;;;;;28.73;15.90;;;6.70;99.90;;;;;;797379;178;27039;-77
2024/04/17 07:43:26;;;;;;;24.13;13.60;;;6.70;99.90;;;;;;791244;179;26469;-77
2024/04/17 07:45:52;;;;;;;26.57;15.30;;;6.60;99.90;;;;;;798067;178;27009;-79
2024/04/17 07:48:18;;;;;;;27.97;14.13;;;6.60;99.90;;;;;;788409;178;27054;-77
2024/04/17 07:50:45;;;;;;;22.23;12.93;;;6.50;99.90;;;;;;807001;177;26494;-77
2024/04/17 07:53:11;;;;;;;22.90;13.77;;;6.50;99.90;;;;;;805209;177;28056;-79
2024/04/17 07:55:38;;;;;;;19.77;13.50;;;6.50;99.90;;;;;;806476;176;26425;-78
2024/04/17 07:58:05;;;;;;;25.60;12.20;;;6.50;99.90;;;;;;807125;176;26443;-80
2024/04/17 08:00:32;;;;;;;18.93;10.37;;;6.50;99.90;;;;;;805257;177;26451;-78
2024/04/17 08:02:59;;;;;;;12.27;7.47;;;6.50;99.90;;;;;;795499;178;27031;-79
2024/04/17 08:05:25;;;;;;;10.23;7.33;;;6.50;99.90;;;;;;805374;176;26458;-79
2024/04/17 08:07:52;;;;;;;12.60;7.20;;;6.50;99.90;;;;;;801700;178;27005;-78
2024/04/17 08:10:18;;;;;;;12.50;6.93;;;6.50;99.90;;;;;;785939;178;26906;-78
2024/04/17 08:12:47;;;;;;;33.93;17.77;;;6.40;99.90;;;;;;795753;179;26496;-77
2024/04/17 08:15:12;;;;;;;9.97;4.97;;;6.40;99.90;;;;;;806791;176;26629;-77
2024/04/17 08:17:39;;;;;;;6.10;3.83;;;6.40;99.90;;;;;;791102;177;26476;-77
2024/04/17 08:20:06;;;;;;;8.40;3.80;;;6.30;99.90;;;;;;799693;178;26440;-76
2024/04/17 08:22:32;;;;;;;3.83;2.90;;;6.40;99.90;;;;;;799785;178;26452;-79
2024/04/17 08:24:59;;;;;;;7.67;3.57;;;6.40;99.90;;;;;;795142;178;26459;-79
2024/04/17 08:27:26;;;;;;;6.07;3.43;;;6.40;99.90;;;;;;793721;178;26467;-79
2024/04/17 08:29:53;;;;;;;9.97;4.30;;;6.40;99.90;;;;;;794620;178;26461;-78
2024/04/17 08:32:19;;;;;;;9.83;4.40;;;6.30;99.90;;;;;;797149;176;28052;-80
2024/04/17 08:34:46;;;;;;;9.63;4.43;;;6.30;99.90;;;;;;796651;178;26582;-80
2024/04/17 08:37:13;;;;;;;11.20;4.30;;;6.40;99.90;;;;;;796634;178;26440;-79
2024/04/17 08:39:39;;;;;;;8.97;4.43;;;6.60;99.90;;;;;;800929;178;26601;-83
2024/04/17 08:42:06;;;;;;;22.00;13.23;;;6.60;99.90;;;;;;807032;171;26472;-83
2024/04/17 08:44:35;;;;;;;13.67;7.40;;;6.60;99.90;;;;;;809669;171;26450;-81
2024/04/17 08:47:03;;;;;;;19.27;9.00;;;6.70;99.90;;;;;;794844;177;26460;-83
2024/04/17 08:49:31;;;;;;;7.10;5.47;;;6.70;99.90;;;;;;810069;173;26416;-82
2024/04/17 08:51:57;;;;;;;7.37;4.90;;;6.70;99.90;;;;;;793775;175;26467;-84
2024/04/17 08:54:24;;;;;;;8.40;5.17;;;6.70;99.90;;;;;;789686;178;26570;-84
2024/04/17 08:56:51;;;;;;;10.20;5.40;;;6.70;99.90;;;;;;810689;176;26532;-82
2024/04/17 08:59:17;;;;;;;7.03;4.63;;;6.80;99.90;;;;;;792855;178;26451;-79
2024/04/17 09:01:44;;;;;;;10.40;4.93;;;6.80;99.90;;;;;;792087;179;26440;-83
2024/04/17 09:04:10;;;;;;;10.00;3.50;;;6.90;99.90;;;;;;789208;178;26444;-80
2024/04/17 09:06:37;;;;;;;12.87;4.00;;;6.90;99.90;;;;;;788264;179;26436;-75
2024/04/17 09:09:04;;;;;;;12.03;3.80;;;6.90;99.90;;;;;;795709;178;26449;-79
2024/04/17 09:11:30;;;;;;;6.57;4.33;;;7.00;99.90;;;;;;803888;177;26443;-79
2024/04/17 09:13:57;;;;;;;12.50;4.20;;;6.90;99.90;;;;;;790605;181;26462;-79
2024/04/17 09:16:23;;;;;;;10.93;3.80;;;6.80;99.90;;;;;;802067;177;26449;-80
2024/04/17 09:18:50;;;;;;;14.87;4.27;;;6.90;99.90;;;;;;790203;180;26464;-79
2024/04/17 09:21:17;;;;;;;11.97;3.77;;;7.00;99.90;;;;;;788983;181;26974;-79
2024/04/17 09:23:43;;;;;;;12.60;3.67;;;7.20;99.90;;;;;;802904;178;26421;-77
2024/04/17 09:26:16;;;;;;;9.60;3.87;;;7.30;99.90;;;;;;797816;179;26975;-79
2024/04/17 09:28:41;;;;;;;13.10;4.30;;;7.20;99.90;;;;;;804072;176;26458;-79
2024/04/17 09:31:08;;;;;;;12.27;4.33;;;7.20;99.90;;;;;;790188;180;26466;-79
2024/04/17 09:33:35;;;;;;;7.03;3.30;;;7.10;99.90;;;;;;789088;180;26446;-80
2024/04/17 09:36:01;;;;;;;7.43;3.60;;;7.10;99.90;;;;;;791274;181;26456;-78
2024/04/17 09:38:28;;;;;;;12.77;3.83;;;7.20;99.90;;;;;;799029;178;27026;-80
2024/04/17 09:40:54;;;;;;;7.80;3.73;;;7.20;99.90;;;;;;802821;177;26447;-79
2024/04/17 09:43:24;;;;;;;12.20;4.33;;;7.10;99.90;;;;;;807756;175;28118;-79
2024/04/17 09:45:49;;;;;;;10.37;4.10;;;7.30;99.90;;;;;;804953;176;26448;-78
2024/04/17 09:48:16;;;;;;;7.00;3.80;;;7.30;99.90;;;;;;802717;177;26526;-78
2024/04/17 09:50:43;;;;;;;4.13;3.27;;;7.30;99.90;;;;;;802620;177;26979;-76
2024/04/17 09:53:09;;;;;;;7.53;3.43;;;7.40;99.90;;;;;;805004;176;26439;-76
2024/04/17 09:55:36;;;;;;;12.07;6.67;;;7.80;99.90;;;;;;792394;180;26592;-80
2024/04/17 09:58:02;;;;;;;9.47;5.07;;;8.30;99.90;;;;;;791248;180;26440;-79
2024/04/17 10:00:29;;;;;;;7.17;3.90;;;8.60;99.90;;;;;;793486;181;26439;-79
2024/04/17 10:02:56;;;;;;;8.17;4.70;;;8.60;99.90;;;;;;791157;177;26483;-79
2024/04/17 10:05:22;;;;;;;10.03;4.67;;;8.90;99.90;;;;;;794520;179;26448;-80
2024/04/17 10:07:49;;;;;;;9.07;4.90;;;9.20;99.90;;;;;;792662;179;26459;-83
2024/04/17 10:10:16;;;;;;;11.53;6.07;;;9.30;99.90;;;;;;793512;175;26407;-83
2024/04/17 10:12:42;;;;;;;11.83;5.60;;;9.20;99.90;;;;;;807098;171;26573;-79
2024/04/17 10:15:09;;;;;;;16.10;7.87;;;9.10;99.90;;;;;;791579;177;27024;-79
2024/04/17 10:17:36;;;;;;;14.00;7.17;;;8.90;99.90;;;;;;806472;176;26477;-77
2024/04/17 10:20:02;;;;;;;10.90;5.23;;;9.10;99.90;;;;;;788610;181;26451;-78
2024/04/17 10:22:29;;;;;;;8.27;3.90;;;9.40;99.90;;;;;;789877;180;26472;-78
2024/04/17 10:25:03;;;;;;;7.73;3.40;;;9.50;99.90;;;;;;788935;181;28100;-79
2024/04/17 10:27:30;;;;;;;10.53;3.90;;;10.00;99.90;;;;;;797128;180;26538;-79
2024/04/17 10:29:56;;;;;;;11.60;4.17;;;9.60;99.90;;;;;;780667;182;26499;-78
2024/04/17 10:32:23;;;;;;;13.87;8.50;;;9.40;99.90;;;;;;791792;180;26563;-78
2024/04/17 10:34:53;;;;;;;14.37;5.60;;;9.50;99.90;;;;;;792240;180;26436;-77
2024/04/17 10:37:22;;;;;;;9.30;4.33;;;9.50;99.90;;;;;;791821;180;26468;-78
2024/04/17 10:39:47;;;;;;;11.13;4.73;;;9.70;99.90;;;;;;809531;173;27045;-80
2024/04/17 10:42:17;;;;;;;32.90;15.37;;;9.80;99.90;;;;;;792958;181;26452;-77
2024/04/17 10:44:44;;;;;;;10.87;6.00;;;10.20;99.90;;;;;;793979;176;26436;-77
2024/04/17 10:47:10;;;;;;;7.97;3.50;;;10.40;99.90;;;;;;785340;179;26451;-79
2024/04/17 10:49:39;;;;;;;8.77;3.90;;;10.20;99.90;;;;;;779382;179;26468;-79
2024/04/17 10:52:06;;;;;;;8.57;3.57;;;10.10;99.90;;;;;;789898;178;26482;-77
2024/04/17 10:54:33;;;;;;;8.70;3.80;;;9.70;99.90;;;;;;791532;179;26691;-79
2024/04/17 10:56:59;;;;;;;9.87;3.07;;;9.60;99.90;;;;;;798130;178;26446;-80
2024/04/17 10:59:26;;;;;;;5.73;3.20;;;9.30;99.90;;;;;;809603;177;27052;-79
2024/04/17 11:01:53;;;;;;;8.30;3.17;;;9.50;99.90;;;;;;794584;180;26589;-78
2024/04/17 11:04:19;;;;;;;10.13;3.43;;;9.60;99.90;;;;;;797411;178;27041;-79
2024/04/17 11:06:48;;;;;;;5.50;2.90;;;9.70;99.90;;;;;;794666;178;26615;-79
2024/04/17 11:09:13;;;;;;;9.13;3.53;;;9.80;99.90;;;;;;790919;179;26451;-80
2024/04/17 11:11:39;;;;;;;11.80;4.40;;;10.20;99.90;;;;;;808341;175;26464;-78
2024/04/17 11:14:06;;;;;;;9.33;4.43;;;10.70;99.90;;;;;;795976;178;26484;-78
2024/04/17 11:16:32;;;;;;;8.87;3.67;;;11.40;99.90;;;;;;793492;178;26990;-80
2024/04/17 11:18:59;;;;;;;12.30;5.50;;;11.70;99.90;;;;;;785571;178;26444;-80
2024/04/17 11:21:26;;;;;;;6.37;3.67;;;11.60;99.90;;;;;;796202;179;26454;-78
2024/04/17 11:23:52;;;;;;;11.07;4.10;;;11.90;99.90;;;;;;792616;178;26469;-79
2024/04/17 11:26:19;;;;;;;6.93;3.67;;;12.00;99.90;;;;;;798609;178;26436;-78
2024/04/17 11:28:46;;;;;;;7.07;3.70;;;12.40;99.90;;;;;;781520;179;28112;-79
2024/04/17 11:31:13;;;;;;;7.33;3.67;;;12.70;99.90;;;;;;797445;178;26435;-79
2024/04/17 11:33:39;;;;;;;30.10;14.77;;;13.40;99.90;;;;;;789545;176;27686;-80
2024/04/17 11:36:08;;;;;;;34.77;19.33;;;14.00;99.90;;;;;;804796;177;26631;-82
2024/04/17 11:38:35;;;;;;;24.67;13.00;;;14.30;98.60;;;;;;791788;179;26599;-79
2024/04/17 11:41:01;;;;;;;7.97;3.63;;;14.20;99.80;;;;;;806715;177;26995;-79
2024/04/17 11:43:28;;;;;;;7.73;3.27;;;14.60;99.90;;;;;;782176;181;26450;-82
2024/04/17 11:45:54;;;;;;;5.97;2.40;;;15.10;96.60;;;;;;808360;173;26431;-81
2024/04/17 11:48:21;;;;;;;10.37;3.17;;;14.80;98.10;;;;;;784892;179;26477;-79
2024/04/17 11:50:48;;;;;;;9.27;2.60;;;13.70;99.40;;;;;;796815;179;26451;-81
2024/04/17 11:53:14;;;;;;;12.43;4.40;;;13.70;95.40;;;;;;797243;179;26449;-79
2024/04/17 11:55:41;;;;;;;6.10;3.17;;;13.40;96.20;;;;;;803081;178;26448;-80
2024/04/17 11:58:07;;;;;;;12.27;6.00;;;12.70;96.00;;;;;;791690;178;26982;-78
2024/04/17 12:00:34;;;;;;;8.07;2.73;;;12.20;97.80;;;;;;801491;178;26446;-75
2024/04/17 12:03:01;;;;;;;11.13;3.50;;;11.50;99.90;;;;;;785184;178;26477;-80
2024/04/17 12:05:27;;;;;;;8.27;3.90;;;11.30;99.90;;;;;;799366;179;26420;-78
2024/04/17 12:07:54;;;;;;;12.63;5.90;;;11.30;99.90;;;;;;791859;179;26432;-80
2024/04/17 12:10:20;;;;;;;7.23;2.73;;;11.10;99.90;;;;;;798738;179;26432;-78
2024/04/17 12:12:47;;;;;;;11.50;3.90;;;10.70;99.90;;;;;;795141;178;26598;-78
2024/04/17 12:15:14;;;;;;;9.67;4.50;;;10.50;99.90;;;;;;800658;179;26433;-78
2024/04/17 12:17:40;;;;;;;14.87;3.90;;;10.50;99.90;;;;;;795306;179;26962;-81
2024/04/17 12:20:07;;;;;;;11.80;4.10;;;10.40;99.90;;;;;;802038;176;26590;-80
2024/04/17 12:22:34;;;;;;;11.53;3.50;;;10.40;99.90;;;;;;797885;176;26447;-79
2024/04/17 12:27:32;;;;;;;9.13;3.90;;;10.60;99.90;;;;;;785361;179;26415;-78
2024/04/17 12:29:59;;;;;;;12.63;6.20;;;10.90;99.90;;;;;;795886;179;26424;-79
2024/04/17 12:32:26;;;;;;;7.67;3.53;;;11.60;99.90;;;;;;787282;178;26622;-79
2024/04/17 12:34:52;;;;;;;10.03;3.93;;;11.80;99.80;;;;;;789090;179;26456;-78
2024/04/17 12:37:19;;;;;;;7.93;3.73;;;11.20;99.90;;;;;;788864;179;27014;-79
2024/04/17 12:39:45;;;;;;;9.30;5.27;;;10.40;99.90;;;;;;786842;179;26435;-80
2024/04/17 12:42:13;;;;;;;9.03;3.67;;;10.20;99.90;;;;;;799915;179;28105;-80